Time;durP1;ratioP1;P1;durP2;ratioP2;P2;SDS_P1;SDS_P2;PMS_P1;PMS_P2;Temp;Humidity;BMP_temperature;BMP_pressure;BME280_temperature;BME280_humidity;BME280_pressure;Samples;Min_cycle;Max_cycle;Signal;HPM_P1;HPM_P2
2022/12/30 00:00:47;;;;;;;10.37;3.23;;;6.90;1.00;;;;;;5036524;28;20290;-65
2022/12/30 00:03:14;;;;;;;16.83;2.90;;;6.70;1.00;;;;;;5057751;28;20310;-65
2022/12/30 00:05:42;;;;;;;10.63;3.23;;;6.80;1.00;;;;;;5025824;28;20238;-66
2022/12/30 00:08:45;;;;;;;16.83;3.10;;;6.80;1.00;;;;;;5036636;28;20188;-66
2022/12/30 00:10:57;;;;;;;9.47;2.73;;;6.70;1.00;;;;;;5039310;28;20326;-65
2022/12/30 00:33:57;;;;;;;18.80;3.53;;;6.80;1.00;;;;;;5051774;28;20191;-65
2022/12/30 00:36:25;;;;;;;11.70;2.93;;;6.70;1.00;;;;;;5022882;28;20808;-65
2022/12/30 00:38:53;;;;;;;11.93;3.07;;;6.70;1.00;;;;;;5039693;28;20203;-65
2022/12/30 00:44:06;;;;;;;15.77;2.90;;;6.90;1.00;;;;;;5029498;28;20303;-66
2022/12/30 00:46:34;;;;;;;14.13;2.97;;;7.00;1.00;;;;;;5042845;28;20199;-69
2022/12/30 00:57:20;;;;;;;14.40;3.23;;;6.90;1.00;;;;;;5055473;28;20563;-66
2022/12/30 00:59:47;;;;;;;15.70;2.90;;;6.90;1.00;;;;;;5021821;28;20281;-66
2022/12/30 01:02:15;;;;;;;13.40;2.97;;;6.80;1.00;;;;;;5056575;28;20201;-68
2022/12/30 01:04:42;;;;;;;12.07;2.83;;;6.70;1.00;;;;;;5026613;28;20746;-66
2022/12/30 01:07:09;;;;;;;14.33;3.60;;;6.80;1.00;;;;;;5035341;28;20230;-67
2022/12/30 01:09:36;;;;;;;15.20;3.13;;;6.90;1.00;;;;;;5036225;28;20207;-65
2022/12/30 01:12:07;;;;;;;12.67;2.73;;;6.80;1.00;;;;;;5036224;28;20195;-67
2022/12/30 01:14:48;;;;;;;12.10;3.63;;;6.80;1.00;;;;;;5035369;28;20200;-66
2022/12/30 01:17:24;;;;;;;11.53;2.60;;;6.80;1.00;;;;;;5035507;28;20238;-66
2022/12/30 01:19:52;;;;;;;17.63;3.33;;;6.60;1.00;;;;;;5037238;28;20262;-66
2022/12/30 01:22:19;;;;;;;11.43;3.10;;;6.70;1.00;;;;;;5035807;28;20184;-67
2022/12/30 01:24:47;;;;;;;10.57;2.90;;;6.70;1.00;;;;;;5035161;28;20733;-67
2022/12/30 01:27:15;;;;;;;12.30;2.63;;;6.70;1.00;;;;;;5019315;28;20696;-66
2022/12/30 01:29:43;;;;;;;12.77;3.17;;;6.70;1.00;;;;;;5035513;28;20212;-66
2022/12/30 01:32:16;;;;;;;13.07;2.80;;;6.60;1.00;;;;;;5033906;28;20835;-65
2022/12/30 01:34:44;;;;;;;17.23;3.47;;;6.50;1.00;;;;;;5037388;28;20631;-66
2022/12/30 01:37:12;;;;;;;15.93;3.13;;;6.60;1.00;;;;;;5056093;28;20576;-66
2022/12/30 01:39:39;;;;;;;11.30;2.80;;;6.60;1.00;;;;;;5041558;28;20191;-66
2022/12/30 01:42:30;;;;;;;15.40;4.00;;;6.50;1.00;;;;;;5037817;28;20551;-67
2022/12/30 01:45:22;;;;;;;11.60;3.50;;;6.50;1.00;;;;;;5051906;28;20223;-66
2022/12/30 01:48:10;;;;;;;10.97;2.53;;;6.50;1.00;;;;;;5038303;28;20732;-66
2022/12/30 01:51:07;;;;;;;14.47;2.70;;;6.50;1.00;;;;;;5039548;28;20677;-67
2022/12/30 01:53:38;;;;;;;15.00;2.77;;;6.50;1.00;;;;;;5054886;28;20226;-67
2022/12/30 01:56:27;;;;;;;13.97;3.03;;;6.40;1.00;;;;;;5040620;28;20196;-66
2022/12/30 01:59:12;;;;;;;15.63;3.03;;;6.40;1.00;;;;;;5056062;28;20245;-67
2022/12/30 02:01:39;;;;;;;11.33;3.23;;;6.50;1.00;;;;;;5037848;28;20208;-65
2022/12/30 02:04:15;;;;;;;10.47;3.10;;;6.40;1.00;;;;;;5057634;28;20240;-64
2022/12/30 02:06:54;;;;;;;13.60;2.90;;;6.50;1.00;;;;;;5059024;28;20576;-64
2022/12/30 02:09:21;;;;;;;14.97;3.33;;;6.40;1.00;;;;;;5040910;28;20230;-64
2022/12/30 02:11:48;;;;;;;8.63;2.60;;;6.50;1.00;;;;;;5041224;28;20712;-64
2022/12/30 02:14:16;;;;;;;14.17;3.20;;;6.40;1.00;;;;;;5059200;28;20700;-64
2022/12/30 02:17:10;;;;;;;15.70;3.30;;;6.50;1.00;;;;;;5024994;28;20207;-64
2022/12/30 02:19:40;;;;;;;13.17;3.00;;;6.40;1.00;;;;;;5060002;28;20195;-64
2022/12/30 02:22:26;;;;;;;16.10;3.00;;;6.40;1.00;;;;;;5059189;28;21088;-64
2022/12/30 02:25:07;;;;;;;16.00;3.17;;;6.40;1.00;;;;;;5057794;28;20199;-64
2022/12/30 02:28:06;;;;;;;11.17;2.57;;;6.30;1.00;;;;;;5024935;28;20229;-64
2022/12/30 02:31:02;;;;;;;11.63;2.53;;;6.30;1.00;;;;;;5038038;28;20209;-65
2022/12/30 02:33:44;;;;;;;9.77;2.50;;;6.40;1.00;;;;;;5039954;28;20674;-68
2022/12/30 02:36:27;;;;;;;12.10;2.43;;;6.30;1.00;;;;;;5042068;28;20239;-66
2022/12/30 02:39:25;;;;;;;15.27;2.70;;;6.20;1.00;;;;;;5041552;28;20234;-65
2022/12/30 02:45:17;;;;;;;14.33;3.63;;;6.20;1.00;;;;;;5038480;28;20218;-68
2022/12/30 02:48:00;;;;;;;12.53;2.93;;;6.30;1.00;;;;;;5038240;28;20237;-64
2022/12/30 02:53:20;;;;;;;10.40;2.73;;;6.20;1.00;;;;;;5058275;28;20196;-64
2022/12/30 02:55:48;;;;;;;16.53;3.17;;;6.00;1.00;;;;;;5058208;28;20207;-65
2022/12/30 02:58:16;;;;;;;10.87;2.53;;;6.00;1.00;;;;;;5057230;28;20242;-65
2022/12/30 03:04:04;;;;;;;10.73;3.23;;;6.00;1.00;;;;;;5060552;28;20601;-64
2022/12/30 03:06:46;;;;;;;15.33;3.53;;;6.00;1.00;;;;;;5041455;28;20187;-65
2022/12/30 03:09:22;;;;;;;16.37;2.93;;;6.00;1.00;;;;;;5025196;28;20542;-66
2022/12/30 03:12:27;;;;;;;15.60;3.13;;;5.90;1.00;;;;;;5060042;28;20186;-64
2022/12/30 03:15:06;;;;;;;15.60;3.93;;;5.90;1.00;;;;;;5058879;28;20191;-64
2022/12/30 03:17:37;;;;;;;10.07;2.80;;;5.70;1.00;;;;;;5039775;28;20255;-64
2022/12/30 03:20:12;;;;;;;14.50;2.80;;;5.70;1.00;;;;;;5024455;28;20694;-65
2022/12/30 03:28:18;;;;;;;20.77;4.00;;;5.80;1.00;;;;;;5058379;28;20216;-67
2022/12/30 03:30:53;;;;;;;13.27;3.20;;;5.60;1.00;;;;;;5040603;28;20219;-66
2022/12/30 03:33:23;;;;;;;17.20;3.43;;;5.60;1.00;;;;;;5060482;28;20649;-66
2022/12/30 03:35:55;;;;;;;11.93;3.30;;;5.60;1.00;;;;;;5036619;28;20196;-67
2022/12/30 03:38:28;;;;;;;16.50;3.13;;;5.60;1.00;;;;;;5058481;28;20230;-66
2022/12/30 03:40:58;;;;;;;16.23;4.57;;;5.60;1.00;;;;;;5038671;28;20196;-66
2022/12/30 03:43:27;;;;;;;14.83;2.87;;;5.50;1.00;;;;;;5058883;28;20337;-65
2022/12/30 03:45:54;;;;;;;12.83;3.10;;;5.50;1.00;;;;;;5058566;28;20282;-65
2022/12/30 03:48:21;;;;;;;12.37;2.80;;;5.60;1.00;;;;;;5025037;28;20207;-65
2022/12/30 03:50:48;;;;;;;17.87;5.43;;;5.70;1.00;;;;;;5057286;28;20654;-65
2022/12/30 03:53:15;;;;;;;11.60;3.43;;;5.70;1.00;;;;;;5056640;28;20290;-65
2022/12/30 03:55:42;;;;;;;14.30;3.30;;;5.60;1.00;;;;;;5055935;28;20195;-65
2022/12/30 03:58:09;;;;;;;13.10;2.93;;;5.60;1.00;;;;;;5022668;28;20277;-65
2022/12/30 04:00:36;;;;;;;13.03;3.33;;;5.50;1.00;;;;;;5037197;28;20675;-65
2022/12/30 04:03:03;;;;;;;16.87;3.70;;;5.50;1.00;;;;;;5056615;28;20251;-64
2022/12/30 04:05:30;;;;;;;19.53;3.60;;;5.50;1.00;;;;;;5038292;28;20217;-65
2022/12/30 04:07:57;;;;;;;18.47;3.57;;;5.50;1.00;;;;;;5037701;28;20208;-66
2022/12/30 04:10:24;;;;;;;12.87;3.43;;;5.50;1.00;;;;;;5037617;28;20634;-65
2022/12/30 04:12:51;;;;;;;14.77;3.50;;;5.40;1.00;;;;;;5055156;28;20261;-65
2022/12/30 04:15:18;;;;;;;13.80;3.40;;;5.40;1.00;;;;;;5039571;28;20477;-66
2022/12/30 04:17:45;;;;;;;15.40;3.90;;;5.60;1.00;;;;;;5036923;28;20227;-65
2022/12/30 04:20:12;;;;;;;16.00;4.17;;;5.60;1.00;;;;;;5040126;28;20234;-65
2022/12/30 04:22:39;;;;;;;18.63;3.93;;;5.60;1.00;;;;;;5056691;28;20286;-65
2022/12/30 04:25:08;;;;;;;12.10;3.90;;;5.50;1.00;;;;;;5021313;28;20282;-73
2022/12/30 04:27:35;;;;;;;15.17;3.43;;;5.50;1.00;;;;;;5019103;28;20199;-66
2022/12/30 04:30:02;;;;;;;14.37;3.67;;;5.50;1.00;;;;;;5054903;28;20187;-66
2022/12/30 04:32:31;;;;;;;19.30;4.03;;;5.50;1.00;;;;;;5036942;28;20199;-66
2022/12/30 04:34:58;;;;;;;15.37;3.30;;;5.60;1.00;;;;;;5031393;28;20350;-65
2022/12/30 04:37:25;;;;;;;15.53;2.70;;;5.60;1.00;;;;;;5023680;28;20623;-65
2022/12/30 04:39:51;;;;;;;13.83;2.83;;;5.60;1.00;;;;;;5039164;28;20183;-66
2022/12/30 04:42:18;;;;;;;13.23;3.10;;;5.60;1.00;;;;;;5036378;28;20203;-66
2022/12/30 04:44:45;;;;;;;18.03;3.00;;;5.60;1.00;;;;;;5038593;28;20523;-66
2022/12/30 04:47:12;;;;;;;14.70;3.83;;;5.60;1.00;;;;;;5035845;28;20203;-67
2022/12/30 04:49:39;;;;;;;8.60;2.57;;;5.60;1.00;;;;;;5056501;28;20203;-66
2022/12/30 04:52:06;;;;;;;14.07;2.90;;;5.70;1.00;;;;;;5039768;28;20198;-66
2022/12/30 04:54:33;;;;;;;9.10;2.73;;;5.70;1.00;;;;;;5039109;28;20265;-65
2022/12/30 04:57:00;;;;;;;15.13;3.00;;;5.70;1.00;;;;;;5039643;28;20203;-67
2022/12/30 04:59:27;;;;;;;11.23;3.03;;;5.70;1.00;;;;;;5037509;28;20196;-67
2022/12/30 05:01:56;;;;;;;11.10;2.80;;;5.60;1.00;;;;;;5037192;28;20209;-66
2022/12/30 05:04:23;;;;;;;13.90;3.10;;;5.60;1.00;;;;;;5055198;28;20466;-66
2022/12/30 05:06:50;;;;;;;15.60;3.07;;;5.60;1.00;;;;;;5037250;28;20195;-66
2022/12/30 05:09:17;;;;;;;10.83;2.83;;;5.70;1.00;;;;;;5038201;28;20221;-66
2022/12/30 05:11:44;;;;;;;19.23;3.13;;;5.70;1.00;;;;;;5042430;28;20297;-66
2022/12/30 05:14:11;;;;;;;12.90;3.23;;;5.70;1.00;;;;;;5042618;28;20745;-66
2022/12/30 05:16:38;;;;;;;12.27;3.00;;;5.70;1.00;;;;;;5062046;28;20278;-66
2022/12/30 05:19:05;;;;;;;13.37;2.73;;;5.70;1.00;;;;;;5040868;28;20222;-67
2022/12/30 05:21:32;;;;;;;11.97;2.80;;;5.80;1.00;;;;;;5042591;28;20216;-65
2022/12/30 05:26:44;;;;;;;11.80;2.60;;;5.70;1.00;;;;;;5057937;28;20198;-65
2022/12/30 05:29:11;;;;;;;11.80;2.60;;;5.50;1.00;;;;;;5057881;28;20191;-65
2022/12/30 05:31:38;;;;;;;14.40;3.20;;;5.50;1.00;;;;;;5042002;28;20190;-66
2022/12/30 05:34:06;;;;;;;11.30;2.63;;;5.40;1.00;;;;;;5040062;28;20203;-71
2022/12/30 05:36:35;;;;;;;13.83;3.03;;;5.50;1.00;;;;;;5043647;28;20704;-66
2022/12/30 05:39:02;;;;;;;9.73;2.43;;;5.50;1.00;;;;;;5041886;28;20625;-66
2022/12/30 05:41:29;;;;;;;14.27;2.97;;;5.50;1.00;;;;;;5052620;28;20196;-65
2022/12/30 05:43:56;;;;;;;8.63;2.80;;;5.40;1.00;;;;;;5025754;28;20621;-65
2022/12/30 05:46:24;;;;;;;11.93;2.73;;;5.40;1.00;;;;;;5044046;28;20214;-64
2022/12/30 05:48:51;;;;;;;9.23;2.90;;;5.50;1.00;;;;;;5041139;28;20210;-65
2022/12/30 05:51:18;;;;;;;13.20;2.77;;;5.50;1.00;;;;;;5061949;28;20195;-65
2022/12/30 05:53:45;;;;;;;13.47;2.53;;;5.50;1.00;;;;;;5038322;28;20275;-65
2022/12/30 05:56:12;;;;;;;11.33;2.60;;;5.30;1.00;;;;;;5056633;28;20225;-66
2022/12/30 05:58:39;;;;;;;16.77;2.90;;;5.30;1.00;;;;;;5060081;28;20205;-65
2022/12/30 06:01:06;;;;;;;12.57;2.90;;;5.20;1.00;;;;;;5058244;28;20650;-65
2022/12/30 06:03:34;;;;;;;13.20;2.73;;;5.20;1.00;;;;;;5043843;28;20860;-65
2022/12/30 06:06:05;;;;;;;8.20;2.23;;;5.30;1.00;;;;;;5061268;28;20227;-65
2022/12/30 06:08:32;;;;;;;12.40;2.80;;;5.20;1.00;;;;;;5043965;28;20192;-66
2022/12/30 06:11:00;;;;;;;12.53;2.80;;;5.20;1.00;;;;;;5056572;28;20286;-67
2022/12/30 06:13:27;;;;;;;10.77;2.90;;;5.20;1.00;;;;;;5041823;28;20211;-65
2022/12/30 06:15:54;;;;;;;13.60;3.57;;;5.20;1.00;;;;;;5060229;28;20541;-66
2022/12/30 06:18:21;;;;;;;10.03;2.43;;;5.30;1.00;;;;;;5043346;28;20222;-66
2022/12/30 06:20:48;;;;;;;12.23;2.60;;;5.20;1.00;;;;;;5060924;28;20647;-66
2022/12/30 06:23:15;;;;;;;11.70;2.57;;;5.20;1.00;;;;;;5059677;28;20196;-66
2022/12/30 06:25:42;;;;;;;16.23;3.77;;;5.30;1.00;;;;;;5042861;28;20219;-68
2022/12/30 06:28:09;;;;;;;9.47;2.40;;;5.20;1.00;;;;;;5057640;28;20643;-66
2022/12/30 06:30:36;;;;;;;16.40;3.37;;;5.10;1.00;;;;;;5024601;28;20261;-65
2022/12/30 06:33:03;;;;;;;9.53;2.73;;;5.20;1.00;;;;;;5059189;28;20188;-65
2022/12/30 06:35:30;;;;;;;13.97;3.13;;;5.10;1.00;;;;;;5039297;28;20261;-65
2022/12/30 06:37:57;;;;;;;16.20;3.43;;;5.00;1.00;;;;;;5041343;28;20421;-65
2022/12/30 06:40:24;;;;;;;12.63;2.70;;;5.10;1.00;;;;;;5021367;28;20196;-65
2022/12/30 06:42:51;;;;;;;12.70;2.60;;;5.10;1.00;;;;;;5025253;28;20274;-65
2022/12/30 06:45:18;;;;;;;10.80;2.63;;;5.20;1.00;;;;;;5042812;28;20207;-65
2022/12/30 06:47:45;;;;;;;11.20;3.03;;;5.20;1.00;;;;;;5061839;28;20202;-65
2022/12/30 06:50:12;;;;;;;12.27;2.60;;;5.10;1.00;;;;;;5025315;28;20203;-65
2022/12/30 06:52:40;;;;;;;9.93;2.90;;;5.20;1.00;;;;;;5059461;28;20210;-65
2022/12/30 06:55:07;;;;;;;13.40;2.60;;;5.20;1.00;;;;;;5041317;28;20210;-65
2022/12/30 06:57:34;;;;;;;15.43;2.77;;;5.20;1.00;;;;;;5037469;28;20254;-65
2022/12/30 07:00:04;;;;;;;10.27;2.50;;;5.20;1.00;;;;;;5040836;28;20192;-65
2022/12/30 07:02:31;;;;;;;13.20;3.27;;;5.20;1.00;;;;;;5058958;28;20273;-65
2022/12/30 07:04:58;;;;;;;12.63;3.00;;;5.30;1.00;;;;;;5034121;28;20637;-67
2022/12/30 07:07:25;;;;;;;10.00;2.60;;;5.20;1.00;;;;;;5035814;28;20781;-65
2022/12/30 07:09:52;;;;;;;15.70;2.83;;;5.20;1.00;;;;;;5019580;28;20258;-66
2022/12/30 07:12:19;;;;;;;15.67;3.10;;;5.40;1.00;;;;;;5036562;28;20688;-66
2022/12/30 07:14:46;;;;;;;12.10;2.77;;;5.40;1.00;;;;;;5038342;28;20200;-65
2022/12/30 07:17:13;;;;;;;9.83;2.67;;;5.50;1.00;;;;;;5020169;28;20775;-66
2022/12/30 07:19:40;;;;;;;13.40;2.73;;;5.50;1.00;;;;;;5020010;28;20220;-65
2022/12/30 07:22:07;;;;;;;10.47;2.20;;;5.60;1.00;;;;;;5036073;28;20211;-65
2022/12/30 07:24:34;;;;;;;15.53;2.60;;;5.70;1.00;;;;;;5038488;28;20196;-65
2022/12/30 07:27:01;;;;;;;9.63;2.70;;;5.70;1.00;;;;;;5035637;28;20534;-65
2022/12/30 07:29:28;;;;;;;8.27;2.17;;;5.80;1.00;;;;;;5037013;28;20193;-66
2022/12/30 07:31:55;;;;;;;11.90;3.03;;;5.80;1.00;;;;;;5035716;28;20286;-65
2022/12/30 07:34:22;;;;;;;10.43;2.67;;;5.80;1.00;;;;;;5035707;28;20231;-65
2022/12/30 07:36:49;;;;;;;12.57;3.00;;;5.80;1.00;;;;;;5036012;28;20648;-65
2022/12/30 07:39:16;;;;;;;8.70;1.80;;;5.80;1.00;;;;;;5036780;28;20520;-65
2022/12/30 07:41:44;;;;;;;9.33;2.40;;;5.80;1.00;;;;;;5037957;28;20208;-65
2022/12/30 07:44:11;;;;;;;8.13;2.47;;;5.80;1.00;;;;;;5038437;28;20321;-65
2022/12/30 07:46:38;;;;;;;11.90;2.83;;;5.70;1.00;;;;;;5036554;28;20251;-65
2022/12/30 07:49:05;;;;;;;13.83;3.03;;;5.70;1.00;;;;;;5036686;28;20319;-65
2022/12/30 07:51:32;;;;;;;8.67;2.30;;;5.70;1.00;;;;;;5035117;28;20222;-64
2022/12/30 07:54:02;;;;;;;13.43;2.70;;;5.70;1.00;;;;;;5037446;28;20547;-64
2022/12/30 07:56:33;;;;;;;15.57;3.40;;;5.70;1.00;;;;;;5051519;28;20252;-64
2022/12/30 07:59:02;;;;;;;14.23;2.83;;;5.70;1.00;;;;;;5036008;28;20212;-66
2022/12/30 08:01:30;;;;;;;9.33;2.63;;;5.80;1.00;;;;;;5036268;28;20192;-65
2022/12/30 08:03:58;;;;;;;18.00;2.87;;;5.80;1.00;;;;;;5038789;28;20820;-65
2022/12/30 08:06:45;;;;;;;10.73;2.17;;;5.80;1.00;;;;;;5056913;28;20199;-65
2022/12/30 08:09:12;;;;;;;6.70;2.17;;;5.90;1.00;;;;;;5023736;28;20215;-65
2022/12/30 08:11:39;;;;;;;9.00;2.33;;;6.00;1.00;;;;;;5058578;28;20244;-64
2022/12/30 08:14:07;;;;;;;9.83;2.50;;;6.10;1.00;;;;;;5020804;28;20753;-65
2022/12/30 08:16:34;;;;;;;7.83;2.43;;;6.30;1.00;;;;;;5055916;28;20660;-65
2022/12/30 08:19:01;;;;;;;10.33;2.50;;;6.30;1.00;;;;;;5024161;28;20211;-64
2022/12/30 08:21:28;;;;;;;7.00;2.20;;;6.30;1.00;;;;;;5058405;28;20187;-65
2022/12/30 08:23:55;;;;;;;9.73;2.40;;;6.40;1.00;;;;;;5040742;28;20206;-64
2022/12/30 08:26:23;;;;;;;6.43;2.33;;;6.50;1.00;;;;;;5037537;28;20180;-64
2022/12/30 08:28:51;;;;;;;10.67;2.17;;;6.50;1.00;;;;;;5022930;28;20191;-64
2022/12/30 08:31:21;;;;;;;7.60;2.17;;;6.70;1.00;;;;;;5057852;28;20210;-65
2022/12/30 08:33:49;;;;;;;7.67;2.10;;;6.70;1.00;;;;;;5038337;28;20214;-64
2022/12/30 08:36:20;;;;;;;8.70;2.47;;;6.80;1.00;;;;;;5038382;28;20204;-65
2022/12/30 08:38:49;;;;;;;8.83;2.10;;;6.90;1.00;;;;;;5054568;28;20294;-65
2022/12/30 08:41:28;;;;;;;6.53;2.73;;;7.00;1.00;;;;;;5041219;28;20194;-65
2022/12/30 08:43:57;;;;;;;6.33;2.20;;;7.10;1.00;;;;;;5023534;28;20202;-64
2022/12/30 08:46:26;;;;;;;5.47;1.70;;;7.10;1.00;;;;;;5038891;28;20202;-64
2022/12/30 08:48:53;;;;;;;4.70;1.70;;;7.20;1.00;;;;;;5053597;28;20222;-65
2022/12/30 08:51:21;;;;;;;6.87;2.13;;;7.30;1.00;;;;;;5037140;28;20203;-65
2022/12/30 08:53:48;;;;;;;8.40;2.30;;;7.30;1.00;;;;;;5038607;28;20290;-65
2022/12/30 08:56:18;;;;;;;5.23;2.23;;;7.40;1.00;;;;;;5039143;28;20207;-64
2022/12/30 08:58:46;;;;;;;6.63;2.10;;;7.50;1.00;;;;;;5036271;28;20218;-66
2022/12/30 09:01:25;;;;;;;7.13;1.57;;;7.60;1.00;;;;;;5021442;28;20207;-66
2022/12/30 09:03:54;;;;;;;5.57;1.73;;;7.70;1.00;;;;;;5014198;28;20215;-66
2022/12/30 09:06:23;;;;;;;6.10;1.90;;;7.70;1.00;;;;;;5035566;28;20257;-66
2022/12/30 09:08:51;;;;;;;7.73;2.10;;;7.80;1.00;;;;;;5054988;28;20655;-65
2022/12/30 09:11:24;;;;;;;4.37;1.63;;;7.80;1.00;;;;;;5055763;28;20662;-66
2022/12/30 09:13:52;;;;;;;4.23;1.70;;;7.80;1.00;;;;;;5039089;28;20195;-66
2022/12/30 09:16:26;;;;;;;7.17;2.10;;;7.80;1.00;;;;;;5023269;28;20678;-66
2022/12/30 09:18:53;;;;;;;11.87;2.23;;;7.80;1.00;;;;;;5021806;28;20238;-65
2022/12/30 09:21:21;;;;;;;5.77;2.03;;;7.90;1.00;;;;;;5030794;28;20666;-65
2022/12/30 09:23:48;;;;;;;7.30;2.33;;;7.90;1.00;;;;;;5056206;28;20187;-65
2022/12/30 09:26:17;;;;;;;8.07;1.97;;;8.00;1.00;;;;;;5056866;28;20203;-65
2022/12/30 09:28:45;;;;;;;7.40;2.20;;;8.10;1.00;;;;;;5023378;28;20192;-65
2022/12/30 09:31:12;;;;;;;5.93;1.83;;;8.10;1.00;;;;;;5054795;28;20653;-65
2022/12/30 09:33:40;;;;;;;6.93;1.97;;;8.10;1.00;;;;;;5057342;28;20898;-65
2022/12/30 09:36:07;;;;;;;7.03;1.70;;;8.00;1.00;;;;;;5036766;28;20606;-65
2022/12/30 09:38:34;;;;;;;6.20;2.17;;;8.00;1.00;;;;;;5053607;28;20210;-66
2022/12/30 09:41:14;;;;;;;4.77;1.67;;;7.90;1.00;;;;;;5053287;28;20560;-66
2022/12/30 09:43:50;;;;;;;7.53;1.87;;;7.90;1.00;;;;;;5054687;28;20274;-66
2022/12/30 09:46:37;;;;;;;4.50;1.80;;;8.00;1.00;;;;;;5055392;28;20580;-66
2022/12/30 09:49:27;;;;;;;9.43;2.10;;;7.90;1.00;;;;;;5056268;28;20219;-66
2022/12/30 09:52:03;;;;;;;8.63;2.07;;;8.00;1.00;;;;;;5013574;28;20278;-65
2022/12/30 09:54:31;;;;;;;6.23;2.10;;;8.00;1.00;;;;;;5055038;28;20203;-66
2022/12/30 09:57:30;;;;;;;8.10;1.90;;;8.00;1.00;;;;;;5056151;28;20666;-65
2022/12/30 10:00:00;;;;;;;10.37;1.80;;;8.10;1.00;;;;;;5058843;28;20247;-65
2022/12/30 10:02:58;;;;;;;8.40;2.03;;;8.10;1.00;;;;;;5044655;28;20270;-65
2022/12/30 10:05:39;;;;;;;6.33;1.73;;;8.10;1.00;;;;;;5023742;28;20235;-66
2022/12/30 10:08:19;;;;;;;7.93;2.10;;;8.20;1.00;;;;;;5036862;28;20192;-68
2022/12/30 10:11:26;;;;;;;6.07;1.80;;;8.20;1.00;;;;;;5039346;28;20224;-66
2022/12/30 10:13:57;;;;;;;10.30;2.37;;;8.30;1.00;;;;;;5034663;28;20211;-66
2022/12/30 10:16:39;;;;;;;5.97;1.97;;;8.40;1.00;;;;;;5037461;28;20267;-66
2022/12/30 10:19:25;;;;;;;5.63;1.80;;;8.40;1.00;;;;;;5037529;28;20227;-66
2022/12/30 10:22:17;;;;;;;8.00;2.37;;;8.40;1.00;;;;;;5038871;28;20551;-66
2022/12/30 10:25:07;;;;;;;6.50;2.20;;;8.50;1.00;;;;;;5035117;28;20251;-67
2022/12/30 10:27:55;;;;;;;10.37;2.00;;;8.50;1.00;;;;;;5021421;28;20193;-68
2022/12/30 10:30:28;;;;;;;6.97;1.77;;;8.60;1.00;;;;;;5019531;28;20558;-65
2022/12/30 10:33:02;;;;;;;8.60;1.80;;;8.70;1.00;;;;;;5037032;28;20211;-66
2022/12/30 10:35:31;;;;;;;6.60;1.80;;;8.80;1.00;;;;;;5022430;28;20230;-66
2022/12/30 10:38:16;;;;;;;5.87;1.70;;;9.10;1.00;;;;;;5038492;28;20673;-66
2022/12/30 10:41:27;;;;;;;7.10;1.90;;;9.60;1.00;;;;;;5036764;28;20711;-66
2022/12/30 10:44:20;;;;;;;6.63;2.17;;;9.60;1.00;;;;;;5028881;28;20780;-66
2022/12/30 10:47:02;;;;;;;9.37;1.80;;;9.50;1.00;;;;;;5036929;28;20204;-66
2022/12/30 10:49:40;;;;;;;6.03;1.57;;;9.50;1.00;;;;;;5037596;28;20195;-66
2022/12/30 10:52:11;;;;;;;6.67;1.87;;;9.40;1.00;;;;;;5034068;28;20726;-67
2022/12/30 10:54:38;;;;;;;4.93;1.53;;;9.50;1.00;;;;;;5037764;28;20231;-66
2022/12/30 10:57:05;;;;;;;4.00;1.70;;;9.60;1.00;;;;;;5035229;28;20246;-67
2022/12/30 10:59:34;;;;;;;5.43;1.63;;;9.60;1.00;;;;;;5038420;28;20303;-66
2022/12/30 11:02:16;;;;;;;5.43;1.67;;;9.50;1.00;;;;;;5036097;28;20227;-67
2022/12/30 11:04:43;;;;;;;6.13;1.43;;;9.40;1.00;;;;;;5032889;28;21108;-66
2022/12/30 11:07:15;;;;;;;9.10;2.80;;;9.50;1.00;;;;;;5038151;28;21091;-67
2022/12/30 11:09:44;;;;;;;7.17;3.37;;;9.60;1.00;;;;;;5052367;28;20196;-67
2022/12/30 11:15:17;;;;;;;8.00;1.93;;;10.30;1.00;;;;;;5017302;28;20207;-66
2022/12/30 11:17:51;;;;;;;4.47;1.73;;;10.70;1.00;;;;;;5035221;28;20199;-66
2022/12/30 11:20:18;;;;;;;7.47;2.40;;;10.60;1.00;;;;;;5037839;28;20569;-65
2022/12/30 11:22:53;;;;;;;5.83;2.67;;;10.40;1.00;;;;;;5037498;28;20614;-66
2022/12/30 11:25:29;;;;;;;4.13;1.97;;;10.30;1.00;;;;;;5050975;28;20189;-66
2022/12/30 11:28:00;;;;;;;6.40;1.87;;;10.00;1.00;;;;;;5039485;28;20266;-66
2022/12/30 11:30:52;;;;;;;6.57;1.70;;;9.90;1.00;;;;;;5035304;28;20545;-66
2022/12/30 11:33:28;;;;;;;3.10;1.57;;;9.80;1.00;;;;;;5038071;28;20206;-66
2022/12/30 11:36:13;;;;;;;15.73;8.00;;;9.70;1.00;;;;;;5038538;28;20203;-67
2022/12/30 11:38:46;;;;;;;2.97;1.70;;;9.70;1.00;;;;;;5022696;28;20204;-66
2022/12/30 11:41:16;;;;;;;8.20;4.03;;;9.70;1.00;;;;;;5012390;28;20724;-66
2022/12/30 11:44:03;;;;;;;8.67;2.87;;;9.70;1.00;;;;;;5038938;28;20591;-68
2022/12/30 11:46:40;;;;;;;5.07;1.80;;;9.70;1.00;;;;;;5019755;28;20207;-66
2022/12/30 11:49:26;;;;;;;7.97;2.20;;;9.60;1.00;;;;;;5038721;28;20681;-67
2022/12/30 11:51:59;;;;;;;7.10;1.90;;;9.50;1.00;;;;;;5038226;28;20727;-66
2022/12/30 11:54:31;;;;;;;8.03;1.77;;;9.60;1.00;;;;;;5037737;28;20219;-67
2022/12/30 11:57:05;;;;;;;5.87;1.90;;;9.50;1.00;;;;;;5030111;28;20196;-65
2022/12/30 11:59:36;;;;;;;5.30;3.40;;;9.50;1.00;;;;;;5033789;28;20302;-65
2022/12/30 12:02:15;;;;;;;15.50;8.93;;;9.60;1.00;;;;;;5021208;28;20262;-66
2022/12/30 12:04:42;;;;;;;8.87;3.23;;;9.60;1.00;;;;;;5019280;28;20242;-66
2022/12/30 12:07:15;;;;;;;7.13;2.23;;;9.50;1.00;;;;;;5036383;28;20660;-66
2022/12/30 12:10:11;;;;;;;5.03;1.97;;;9.50;1.00;;;;;;5034960;28;20259;-65
2022/12/30 12:12:55;;;;;;;7.27;1.83;;;9.50;1.00;;;;;;5037968;28;20242;-66
2022/12/30 12:15:34;;;;;;;6.50;2.60;;;9.50;1.00;;;;;;5033551;28;20540;-65
2022/12/30 12:18:25;;;;;;;5.87;1.80;;;9.50;1.00;;;;;;5030019;28;20317;-64
2022/12/30 12:21:11;;;;;;;6.57;2.13;;;9.50;1.00;;;;;;5030173;28;20212;-65
2022/12/30 12:24:04;;;;;;;4.63;2.00;;;9.40;1.00;;;;;;5004542;28;20235;-64
2022/12/30 12:26:39;;;;;;;4.40;1.77;;;9.40;1.00;;;;;;5034738;28;20315;-67
2022/12/30 12:29:10;;;;;;;5.87;1.93;;;9.40;1.00;;;;;;5038616;28;20196;-66
2022/12/30 12:32:05;;;;;;;7.70;2.67;;;9.40;1.00;;;;;;5036821;28;20249;-66
2022/12/30 12:35:07;;;;;;;5.67;2.23;;;9.40;1.00;;;;;;5035529;28;20191;-69
2022/12/30 12:37:58;;;;;;;7.80;2.50;;;9.40;1.00;;;;;;5038548;28;20199;-66
2022/12/30 12:40:44;;;;;;;3.47;1.67;;;9.40;1.00;;;;;;5020601;28;20200;-65
2022/12/30 12:43:32;;;;;;;3.23;1.77;;;9.40;1.00;;;;;;5020801;28;20333;-65
2022/12/30 12:46:05;;;;;;;2.93;1.70;;;9.40;1.00;;;;;;5020691;28;20658;-65
2022/12/30 12:49:02;;;;;;;5.90;1.83;;;9.40;1.00;;;;;;5011092;28;20219;-64
2022/12/30 12:51:32;;;;;;;8.60;2.00;;;9.40;1.00;;;;;;5038474;28;20195;-65
2022/12/30 12:54:21;;;;;;;3.90;1.83;;;9.40;1.00;;;;;;5036172;28;20192;-65
2022/12/30 12:57:20;;;;;;;3.67;1.53;;;9.40;1.00;;;;;;5030065;28;20191;-65
2022/12/30 13:00:07;;;;;;;4.87;1.60;;;9.30;1.00;;;;;;5034673;28;20239;-65
2022/12/30 13:02:47;;;;;;;5.63;1.63;;;9.40;1.00;;;;;;5015920;28;20290;-64
2022/12/30 13:05:33;;;;;;;7.27;1.77;;;9.40;1.00;;;;;;5035812;28;20777;-65
2022/12/30 13:08:26;;;;;;;4.53;1.67;;;9.40;1.00;;;;;;5018152;28;20215;-65
2022/12/30 13:11:47;;;;;;;6.83;1.47;;;9.40;1.00;;;;;;5019400;28;20238;-65
2022/12/30 13:14:37;;;;;;;3.43;1.73;;;9.50;1.00;;;;;;5023480;28;20211;-65
2022/12/30 13:17:17;;;;;;;4.50;1.70;;;9.50;1.00;;;;;;5032977;28;20204;-65
2022/12/30 13:19:53;;;;;;;7.00;1.67;;;9.50;1.00;;;;;;5010450;28;20207;-65
2022/12/30 13:22:38;;;;;;;5.07;1.70;;;9.40;1.00;;;;;;5019284;28;20191;-64
2022/12/30 13:25:16;;;;;;;8.73;2.53;;;9.40;1.00;;;;;;5036296;28;20191;-66
2022/12/30 13:27:56;;;;;;;6.20;2.00;;;9.60;1.00;;;;;;5031947;28;20207;-65
2022/12/30 13:30:34;;;;;;;6.27;1.80;;;9.60;1.00;;;;;;5019317;28;20204;-65
2022/12/30 13:33:23;;;;;;;9.77;1.90;;;9.60;1.00;;;;;;5037639;28;20251;-65
2022/12/30 13:36:45;;;;;;;6.43;2.07;;;9.60;1.00;;;;;;5036535;28;20292;-65
2022/12/30 13:39:29;;;;;;;4.03;1.47;;;9.70;1.00;;;;;;5007318;28;20763;-65
2022/12/30 13:42:05;;;;;;;5.33;1.60;;;9.70;1.00;;;;;;5052083;28;20266;-65
2022/12/30 13:44:35;;;;;;;3.43;1.47;;;9.90;1.00;;;;;;5055359;28;20203;-65
2022/12/30 13:47:05;;;;;;;4.33;1.70;;;10.00;1.00;;;;;;5038435;28;20204;-65
2022/12/30 13:49:39;;;;;;;4.57;1.57;;;10.10;1.00;;;;;;5039135;28;20272;-70
2022/12/30 13:52:22;;;;;;;7.30;1.27;;;10.00;1.00;;;;;;5035764;28;20189;-66
2022/12/30 13:54:55;;;;;;;4.50;1.63;;;10.00;1.00;;;;;;5021167;28;20214;-65
2022/12/30 13:57:36;;;;;;;5.43;1.50;;;10.00;1.00;;;;;;5039408;28;20191;-65
2022/12/30 14:00:08;;;;;;;4.53;1.50;;;10.00;1.00;;;;;;5038495;28;20287;-67
2022/12/30 14:02:48;;;;;;;3.43;1.43;;;10.10;1.00;;;;;;5037134;28;20196;-71
2022/12/30 14:05:35;;;;;;;5.03;1.40;;;10.10;1.00;;;;;;5034881;28;20317;-64
2022/12/30 14:08:04;;;;;;;5.43;1.30;;;10.10;1.00;;;;;;5037125;28;20204;-66
2022/12/30 14:10:45;;;;;;;3.47;1.40;;;10.10;1.00;;;;;;5040679;28;20207;-65
2022/12/30 14:13:14;;;;;;;4.93;1.40;;;10.10;1.00;;;;;;5055510;28;20195;-66
2022/12/30 14:15:41;;;;;;;3.47;1.50;;;10.10;1.00;;;;;;5039767;28;20230;-66
2022/12/30 14:18:22;;;;;;;6.17;1.70;;;10.10;1.00;;;;;;5039765;28;20617;-65
2022/12/30 14:21:13;;;;;;;2.33;1.20;;;10.30;1.00;;;;;;5022035;28;20235;-69
2022/12/30 14:24:33;;;;;;;6.50;1.60;;;10.30;1.00;;;;;;5023584;28;20790;-65
2022/12/30 14:27:00;;;;;;;4.10;1.50;;;10.30;1.00;;;;;;5016025;28;20200;-65